Time,TemperatureF,DewpointF,PressureIn,WindDirection,WindDirectionDegrees,WindSpeedMPH,WindSpeedGustMPH,Humidity,HourlyPrecipIn,Conditions,Clouds,dailyrainin,SoftwareType,DateUTC
2013-10-29 00:14:00,37.8,36.2,30.24,ENE,67,0.0,-999.0,94,-99.99,,,0.00,Acu-Link.com,2013-10-29 04:14:00,
2013-10-29 00:29:00,37.2,35.6,30.24,ENE,67,0.0,-999.0,94,-99.99,,,0.00,Acu-Link.com,2013-10-29 04:29:00,
2013-10-29 00:44:00,37.2,35.6,30.24,ENE,67,0.0,-999.0,94,-99.99,,,0.00,Acu-Link.com,2013-10-29 04:44:00,
2013-10-29 01:00:00,37.2,35.6,30.24,ENE,67,0.0,-999.0,94,-99.99,,,0.00,Acu-Link.com,2013-10-29 05:00:00,
2013-10-29 01:15:00,37.2,35.4,30.24,ENE,67,0.0,-999.0,93,-99.99,,,0.00,Acu-Link.com,2013-10-29 05:15:00,
2013-10-29 01:30:00,37.2,35.1,30.24,ENE,67,0.0,-999.0,92,-99.99,,,0.00,Acu-Link.com,2013-10-29 05:30:00,
2013-10-29 01:45:00,37.0,34.9,30.24,ENE,67,0.0,-999.0,92,-99.99,,,0.00,Acu-Link.com,2013-10-29 05:45:00,
2013-10-29 02:00:00,36.7,34.6,30.24,ENE,67,0.0,-999.0,92,-99.99,,,0.00,Acu-Link.com,2013-10-29 06:00:00,
2013-10-29 02:16:00,36.0,33.6,30.25,ENE,67,0.0,-999.0,91,-99.99,,,0.00,Acu-Link.com,2013-10-29 06:16:00,
2013-10-29 02:31:00,35.4,33.3,30.25,ENE,67,0.0,-999.0,92,-99.99,,,0.00,Acu-Link.com,2013-10-29 06:31:00,
2013-10-29 02:46:00,35.1,33.3,30.25,ENE,67,0.0,-999.0,93,-99.99,,,0.00,Acu-Link.com,2013-10-29 06:46:00,
2013-10-29 03:01:00,35.6,34.0,30.26,ENE,67,0.0,-999.0,94,-99.99,,,0.00,Acu-Link.com,2013-10-29 07:01:00,
2013-10-29 03:16:00,36.0,34.2,30.26,ENE,67,0.0,-999.0,93,-99.99,,,0.00,Acu-Link.com,2013-10-29 07:16:00,
2013-10-29 03:32:00,36.0,34.2,30.25,ENE,67,0.0,-999.0,93,-99.99,,,0.00,Acu-Link.com,2013-10-29 07:32:00,
2013-10-29 03:47:00,36.0,34.2,30.25,ENE,67,0.0,-999.0,93,-99.99,,,0.00,Acu-Link.com,2013-10-29 07:47:00,
2013-10-29 04:02:00,36.0,34.2,30.25,ENE,67,0.0,-999.0,93,-99.99,,,0.00,Acu-Link.com,2013-10-29 08:02:00,
2013-10-29 04:17:00,36.0,34.2,30.24,ENE,67,0.0,-999.0,93,-99.99,,,0.00,Acu-Link.com,2013-10-29 08:17:00,
2013-10-29 04:33:00,36.0,34.2,30.24,ENE,67,0.0,-999.0,93,-99.99,,,0.00,Acu-Link.com,2013-10-29 08:33:00,
2013-10-29 04:48:00,36.0,34.2,30.25,ENE,67,0.0,-999.0,93,-99.99,,,0.00,Acu-Link.com,2013-10-29 08:48:00,
2013-10-29 05:03:00,36.0,34.2,30.25,ENE,67,0.0,-999.0,93,-99.99,,,0.00,Acu-Link.com,2013-10-29 09:03:00,
2013-10-29 05:18:00,36.0,34.2,30.25,ENE,67,0.0,-999.0,93,-99.99,,,0.00,Acu-Link.com,2013-10-29 09:18:00,
2013-10-29 05:33:00,36.0,34.2,30.27,ENE,67,0.0,-999.0,93,-99.99,,,0.00,Acu-Link.com,2013-10-29 09:33:00,
2013-10-29 05:48:00,36.0,34.2,30.27,ENE,67,0.0,-999.0,93,-99.99,,,0.00,Acu-Link.com,2013-10-29 09:48:00,
2013-10-29 06:04:00,36.0,34.2,30.28,ENE,67,0.0,-999.0,93,-99.99,,,0.00,Acu-Link.com,2013-10-29 10:04:00,
2013-10-29 06:19:00,36.0,34.2,30.28,ENE,67,0.0,-999.0,93,-99.99,,,0.00,Acu-Link.com,2013-10-29 10:19:00,
2013-10-29 06:34:00,36.0,34.2,30.29,ENE,67,0.0,-999.0,93,-99.99,,,0.00,Acu-Link.com,2013-10-29 10:34:00,
2013-10-29 06:49:00,36.0,34.2,30.29,ENE,67,0.0,-999.0,93,-99.99,,,0.00,Acu-Link.com,2013-10-29 10:49:00,
2013-10-29 07:04:00,36.0,34.2,30.29,ENE,67,0.0,-999.0,93,-99.99,,,0.00,Acu-Link.com,2013-10-29 11:04:00,
2013-10-29 07:20:00,36.0,34.2,30.29,ENE,67,0.0,-999.0,93,-99.99,,,0.00,Acu-Link.com,2013-10-29 11:20:00,
2013-10-29 07:35:00,36.0,34.2,30.29,ENE,67,0.0,-999.0,93,-99.99,,,0.00,Acu-Link.com,2013-10-29 11:35:00,
2013-10-29 07:50:00,36.0,34.2,30.30,ENE,67,0.0,-999.0,93,-99.99,,,0.00,Acu-Link.com,2013-10-29 11:50:00,
2013-10-29 08:05:00,36.0,34.2,30.29,ENE,67,0.0,-999.0,93,-99.99,,,0.00,Acu-Link.com,2013-10-29 12:05:00,
2013-10-29 08:20:00,36.0,34.2,30.30,ENE,67,0.0,-999.0,93,-99.99,,,0.00,Acu-Link.com,2013-10-29 12:20:00,
2013-10-29 08:36:00,36.0,34.2,30.30,ENE,67,0.0,-999.0,93,-99.99,,,0.00,Acu-Link.com,2013-10-29 12:36:00,
2013-10-29 08:51:00,36.0,34.2,30.30,ENE,67,0.0,-999.0,93,-99.99,,,0.00,Acu-Link.com,2013-10-29 12:51:00,
2013-10-29 09:06:00,36.0,34.2,30.30,ENE,67,0.0,-999.0,93,-99.99,,,0.00,Acu-Link.com,2013-10-29 13:06:00,
2013-10-29 09:21:00,36.0,34.2,30.31,ENE,67,1.7,-999.0,93,-99.99,,,0.00,Acu-Link.com,2013-10-29 13:21:00,
2013-10-29 09:36:00,36.0,34.2,30.31,ENE,67,1.7,-999.0,93,-99.99,,,0.00,Acu-Link.com,2013-10-29 13:36:00,
2013-10-29 09:52:00,36.0,34.2,30.30,ENE,67,0.0,-999.0,93,-99.99,,,0.00,Acu-Link.com,2013-10-29 13:52:00,
2013-10-29 10:07:00,36.0,34.2,30.30,ENE,67,0.0,-999.0,93,-99.99,,,0.00,Acu-Link.com,2013-10-29 14:07:00,
2013-10-29 10:22:00,36.0,34.2,30.30,ENE,67,2.2,-999.0,93,-99.99,,,0.00,Acu-Link.com,2013-10-29 14:22:00,
2013-10-29 10:37:00,36.0,34.2,30.30,ENE,67,3.7,-999.0,93,-99.99,,,0.00,Acu-Link.com,2013-10-29 14:37:00,
2013-10-29 10:52:00,36.0,34.2,30.29,ENE,67,0.0,-999.0,93,-99.99,,,0.00,Acu-Link.com,2013-10-29 14:52:00,
2013-10-29 11:08:00,48.9,37.7,30.31,NE,45,1.7,-999.0,65,-99.99,,,0.00,Acu-Link.com,2013-10-29 15:08:00,
2013-10-29 11:23:00,49.6,36.7,30.31,NE,45,2.7,-999.0,61,-99.99,,,0.00,Acu-Link.com,2013-10-29 15:23:00,
2013-10-29 11:38:00,50.7,38.2,30.30,WSW,247,1.7,-999.0,62,-99.99,,,0.00,Acu-Link.com,2013-10-29 15:38:00,
2013-10-29 11:53:00,51.4,37.6,30.30,NE,45,2.7,-999.0,59,-99.99,,,0.00,Acu-Link.com,2013-10-29 15:53:00,
2013-10-29 12:09:00,52.5,37.7,30.30,NE,45,2.7,-999.0,57,-99.99,,,0.00,Acu-Link.com,2013-10-29 16:09:00,
2013-10-29 12:24:00,53.4,38.1,30.29,West,270,2.7,-999.0,56,-99.99,,,0.00,Acu-Link.com,2013-10-29 16:24:00,
2013-10-29 12:39:00,53.4,37.6,30.29,ENE,67,2.2,-999.0,55,-99.99,,,0.00,Acu-Link.com,2013-10-29 16:39:00,
2013-10-29 12:54:00,54.5,38.7,30.28,WSW,247,1.7,-999.0,55,-99.99,,,0.00,Acu-Link.com,2013-10-29 16:54:00,
2013-10-29 13:09:00,53.8,37.1,30.26,WSW,247,0.0,-999.0,53,-99.99,,,0.00,Acu-Link.com,2013-10-29 17:09:00,
2013-10-29 13:25:00,54.5,38.2,30.25,NE,45,0.0,-999.0,54,-99.99,,,0.00,Acu-Link.com,2013-10-29 17:25:00,
2013-10-29 13:40:00,55.9,39.0,30.24,ENE,67,1.7,-999.0,53,-99.99,,,0.00,Acu-Link.com,2013-10-29 17:40:00,
2013-10-29 13:55:00,55.4,38.1,30.23,ENE,67,0.0,-999.0,52,-99.99,,,0.00,Acu-Link.com,2013-10-29 17:55:00,
2013-10-29 14:10:00,57.0,37.5,30.23,SW,225,1.7,-999.0,48,-99.99,,,0.00,Acu-Link.com,2013-10-29 18:10:00,
2013-10-29 14:25:00,55.8,38.4,30.22,NW,315,2.2,-999.0,52,-99.99,,,0.00,Acu-Link.com,2013-10-29 18:25:00,
2013-10-29 14:41:00,56.1,38.2,30.21,SSW,202,5.8,-999.0,51,-99.99,,,0.00,Acu-Link.com,2013-10-29 18:41:00,
2013-10-29 14:56:00,57.0,38.5,30.21,NNE,22,3.7,-999.0,50,-99.99,,,0.00,Acu-Link.com,2013-10-29 18:56:00,
2013-10-29 15:11:00,57.4,39.4,30.19,ESE,112,3.2,-999.0,51,-99.99,,,0.00,Acu-Link.com,2013-10-29 19:11:00,
2013-10-29 15:26:00,56.8,38.4,30.20,NE,45,2.7,-999.0,50,-99.99,,,0.00,Acu-Link.com,2013-10-29 19:26:00,
2013-10-29 15:41:00,56.1,38.7,30.20,East,90,0.0,-999.0,52,-99.99,,,0.00,Acu-Link.com,2013-10-29 19:41:00,
2013-10-29 15:57:00,56.7,38.3,30.19,SW,225,0.0,-999.0,50,-99.99,,,0.00,Acu-Link.com,2013-10-29 19:57:00,
2013-10-29 16:12:00,56.1,37.7,30.20,ENE,67,0.0,-999.0,50,-99.99,,,0.00,Acu-Link.com,2013-10-29 20:12:00,
2013-10-29 16:27:00,55.2,38.4,30.20,ENE,67,0.0,-999.0,53,-99.99,,,0.00,Acu-Link.com,2013-10-29 20:27:00,
2013-10-29 16:42:00,58.6,39.0,30.19,ENE,67,0.0,-999.0,48,-99.99,,,0.00,Acu-Link.com,2013-10-29 20:42:00,
2013-10-29 16:58:00,58.5,39.9,30.20,ENE,67,0.0,-999.0,50,-99.99,,,0.00,Acu-Link.com,2013-10-29 20:58:00,
2013-10-29 17:13:00,57.2,38.7,30.20,ENE,67,0.0,-999.0,50,-99.99,,,0.00,Acu-Link.com,2013-10-29 21:13:00,
2013-10-29 17:28:00,56.3,38.9,30.19,ENE,67,0.0,-999.0,52,-99.99,,,0.00,Acu-Link.com,2013-10-29 21:28:00,
2013-10-29 17:43:00,55.6,41.1,30.19,ENE,67,0.0,-999.0,58,-99.99,,,0.00,Acu-Link.com,2013-10-29 21:43:00,
2013-10-29 17:58:00,53.2,39.7,30.20,ENE,67,0.0,-999.0,60,-99.99,,,0.00,Acu-Link.com,2013-10-29 21:58:00,
2013-10-29 18:14:00,51.3,39.1,30.18,ENE,67,0.0,-999.0,63,-99.99,,,0.00,Acu-Link.com,2013-10-29 22:14:00,
2013-10-29 18:29:00,49.1,38.6,30.18,ENE,67,0.0,-999.0,67,-99.99,,,0.00,Acu-Link.com,2013-10-29 22:29:00,
2013-10-29 18:44:00,46.9,37.6,30.19,ENE,67,0.0,-999.0,70,-99.99,,,0.00,Acu-Link.com,2013-10-29 22:44:00,
2013-10-29 19:00:00,45.3,36.8,30.19,ENE,67,0.0,-999.0,72,-99.99,,,0.00,Acu-Link.com,2013-10-29 23:00:00,
2013-10-29 19:15:00,43.9,36.8,30.19,ENE,67,0.0,-999.0,76,-99.99,,,0.00,Acu-Link.com,2013-10-29 23:15:00,
2013-10-29 19:30:00,42.4,36.7,30.20,ENE,67,0.0,-999.0,80,-99.99,,,0.00,Acu-Link.com,2013-10-29 23:30:00,
2013-10-29 19:45:00,41.5,36.1,30.19,ENE,67,0.0,-999.0,81,-99.99,,,0.00,Acu-Link.com,2013-10-29 23:45:00,
2013-10-29 20:00:00,40.6,34.9,30.19,ENE,67,0.0,-999.0,80,-99.99,,,0.00,Acu-Link.com,2013-10-30 00:00:00,
2013-10-29 20:16:00,40.3,36.2,30.20,ENE,67,0.0,-999.0,85,-99.99,,,0.00,Acu-Link.com,2013-10-30 00:16:00,
2013-10-29 20:31:00,39.7,35.3,30.19,ENE,67,0.0,-999.0,84,-99.99,,,0.00,Acu-Link.com,2013-10-30 00:31:00,
2013-10-29 20:46:00,39.4,35.6,30.20,ENE,67,0.0,-999.0,86,-99.99,,,0.00,Acu-Link.com,2013-10-30 00:46:00,
2013-10-29 21:01:00,39.0,34.6,30.20,ENE,67,0.0,-999.0,84,-99.99,,,0.00,Acu-Link.com,2013-10-30 01:01:00,
2013-10-29 21:16:00,38.8,35.3,30.18,ENE,67,0.0,-999.0,87,-99.99,,,0.00,Acu-Link.com,2013-10-30 01:16:00,
2013-10-29 21:32:00,39.2,36.5,30.18,ENE,67,0.0,-999.0,90,-99.99,,,0.00,Acu-Link.com,2013-10-30 01:32:00,
2013-10-29 21:47:00,39.7,37.0,30.17,ENE,67,0.0,-999.0,90,-99.99,,,0.00,Acu-Link.com,2013-10-30 01:47:00,
2013-10-29 22:02:00,40.1,37.1,30.17,ENE,67,0.0,-999.0,89,-99.99,,,0.00,Acu-Link.com,2013-10-30 02:02:00,
2013-10-29 22:17:00,40.5,37.2,30.17,ENE,67,1.1,-999.0,88,-99.99,,,0.00,Acu-Link.com,2013-10-30 02:17:00,
2013-10-29 22:32:00,41.5,37.3,30.17,ENE,67,0.0,-999.0,85,-99.99,,,0.00,Acu-Link.com,2013-10-30 02:32:00,
2013-10-29 22:48:00,42.6,37.2,30.17,ENE,67,0.0,-999.0,81,-99.99,,,0.00,Acu-Link.com,2013-10-30 02:48:00,
2013-10-29 23:03:00,43.7,37.0,30.17,ENE,67,0.0,-999.0,77,-99.99,,,0.00,Acu-Link.com,2013-10-30 03:03:00,
2013-10-29 23:18:00,44.1,37.0,30.17,ENE,67,0.0,-999.0,76,-99.99,,,0.00,Acu-Link.com,2013-10-30 03:18:00,
2013-10-29 23:33:00,44.4,37.0,30.15,ENE,67,0.0,-999.0,75,-99.99,,,0.00,Acu-Link.com,2013-10-30 03:33:00,
2013-10-29 23:48:00,44.8,37.0,30.14,ENE,67,0.0,-999.0,74,-99.99,,,0.00,Acu-Link.com,2013-10-30 03:48:00,